Time;durP1;ratioP1;P1;durP2;ratioP2;P2;SDS_P1;SDS_P2;PMS_P1;PMS_P2;Temp;Humidity;BMP_temperature;BMP_pressure;BME280_temperature;BME280_humidity;BME280_pressure;Samples;Min_cycle;Max_cycle;Signal;HPM_P1;HPM_P2
2022/08/18 00:00:15;;;;;;;1999.90;999.90;;;19.90;99.90;;;;;;4952809;28;20050;-80
2022/08/18 00:02:42;;;;;;;1999.90;999.90;;;19.00;99.90;;;;;;4971371;28;20211;-86
2022/08/18 00:05:11;;;;;;;1999.90;999.90;;;20.20;99.90;;;;;;4953381;28;20047;-86
2022/08/18 00:07:37;;;;;;;1999.90;999.90;;;19.10;99.90;;;;;;4971749;28;20047;-80
2022/08/18 00:10:04;;;;;;;1999.90;999.90;;;19.00;99.90;;;;;;4970260;28;20054;-79
2022/08/18 00:12:37;;;;;;;1999.90;999.90;;;20.20;99.90;;;;;;4955041;28;20398;-79
2022/08/18 00:15:07;;;;;;;1999.90;999.90;;;20.00;99.90;;;;;;4971796;28;20411;-79
2022/08/18 00:17:35;;;;;;;1999.90;999.90;;;19.80;99.90;;;;;;4971245;28;20045;-80
2022/08/18 00:20:01;;;;;;;;;;;20.30;99.90;;;;;;4971257;28;20038;-79
2022/08/18 00:22:27;;;;;;;1999.90;999.90;;;19.00;99.90;;;;;;4972171;28;19969;-79
2022/08/18 00:24:55;;;;;;;1999.90;999.90;;;19.80;99.90;;;;;;4971567;28;20395;-79
2022/08/18 00:27:25;;;;;;;;;;;19.00;99.90;;;;;;4971520;28;20051;-80
2022/08/18 00:29:52;;;;;;;1999.90;999.90;;;18.80;99.90;;;;;;4954067;28;19922;-79
2022/08/18 00:32:24;;;;;;;1999.90;999.90;;;20.00;99.90;;;;;;4970365;28;20408;-80
2022/08/18 00:34:51;;;;;;;1999.90;999.90;;;19.20;99.90;;;;;;4974699;28;20421;-80
2022/08/18 00:37:17;;;;;;;1999.90;999.90;;;18.90;99.90;;;;;;4960842;28;20063;-80
2022/08/18 00:39:43;;;;;;;1999.90;999.90;;;18.90;99.90;;;;;;4974678;28;20073;-85
2022/08/18 00:42:21;;;;;;;1999.90;999.90;;;20.10;99.90;;;;;;4974844;28;20058;-81
2022/08/18 00:44:48;;;;;;;1999.90;999.90;;;20.00;99.90;;;;;;4974415;28;20153;-84
2022/08/18 00:47:14;;;;;;;1999.90;999.90;;;20.10;99.90;;;;;;4974662;28;20057;-80
2022/08/18 00:49:41;;;;;;;1999.90;999.90;;;18.90;99.90;;;;;;4956680;28;20237;-81
2022/08/18 00:52:10;;;;;;;1999.90;999.90;;;19.90;99.90;;;;;;4973947;28;20053;-80
2022/08/18 00:54:38;;;;;;;1999.90;999.90;;;20.20;99.90;;;;;;4973083;28;20055;-81
2022/08/18 00:57:06;;;;;;;1999.90;999.90;;;20.10;99.90;;;;;;4972994;28;20122;-80
2022/08/18 00:59:48;;;;;;;1999.90;999.90;;;20.20;99.90;;;;;;4975069;28;20050;-81
2022/08/18 01:02:18;;;;;;;1999.90;999.90;;;19.90;99.90;;;;;;4973314;28;20058;-80
2022/08/18 01:04:52;;;;;;;1999.90;999.90;;;19.10;99.90;;;;;;4974897;28;20050;-80
2022/08/18 01:07:28;;;;;;;1999.90;999.90;;;20.20;99.90;;;;;;4974680;28;20491;-82
2022/08/18 01:09:58;;;;;;;1999.90;999.90;;;19.00;99.90;;;;;;4973187;28;20051;-81
2022/08/18 01:12:25;;;;;;;1999.90;999.90;;;18.90;99.90;;;;;;4973780;28;20054;-82
2022/08/18 01:14:52;;;;;;;1999.90;999.90;;;19.00;99.90;;;;;;4974239;28;20057;-81
2022/08/18 01:22:59;;;;;;;1999.90;999.90;;;20.20;99.90;;;;;;4973141;28;20062;-80
2022/08/18 01:28:09;;;;;;;1999.90;999.90;;;19.00;99.90;;;;;;4959292;28;20051;-81
2022/08/18 01:30:54;;;;;;;1999.90;999.90;;;19.40;99.90;;;;;;4973858;28;20065;-81
2022/08/18 01:33:20;;;;;;;1999.90;999.90;;;20.10;99.90;;;;;;4973247;28;20043;-81
2022/08/18 01:35:48;;;;;;;1999.90;999.90;;;19.30;99.90;;;;;;4956726;28;20057;-80
2022/08/18 01:38:17;;;;;;;1999.90;999.90;;;18.80;99.90;;;;;;4971522;28;20055;-80
2022/08/18 01:40:47;;;;;;;1999.90;999.90;;;20.10;99.90;;;;;;4973716;28;20051;-81
2022/08/18 01:43:20;;;;;;;1999.90;999.90;;;20.10;99.90;;;;;;4956981;28;20058;-80
2022/08/18 01:45:46;;;;;;;1999.90;999.90;;;19.20;99.90;;;;;;4973357;28;20066;-84
2022/08/18 01:48:12;;;;;;;1999.90;999.90;;;19.90;99.90;;;;;;4973081;28;20039;-80
2022/08/18 01:50:48;;;;;;;1999.90;999.90;;;20.10;99.90;;;;;;4973132;28;20046;-79
2022/08/18 01:53:18;;;;;;;1999.90;999.90;;;20.10;99.90;;;;;;4971814;28;20058;-80
2022/08/18 01:55:44;;;;;;;1999.90;999.90;;;18.90;99.90;;;;;;4940118;28;20070;-80
2022/08/18 01:58:11;;;;;;;1999.90;999.90;;;20.10;99.90;;;;;;4971908;28;20054;-81
2022/08/18 02:00:38;;;;;;;1999.90;999.90;;;18.70;99.90;;;;;;4972348;28;20047;-84
2022/08/18 02:03:11;;;;;;;1999.90;999.90;;;20.10;99.90;;;;;;4956876;28;20042;-81
2022/08/18 02:05:45;;;;;;;1999.90;999.90;;;18.70;99.90;;;;;;4971873;28;20089;-81
2022/08/18 02:08:12;;;;;;;1999.90;999.90;;;19.00;99.90;;;;;;4973473;28;20133;-81
2022/08/18 02:10:38;;;;;;;1999.90;999.90;;;19.00;99.90;;;;;;4973799;28;20514;-80
2022/08/18 02:13:06;;;;;;;1999.90;999.90;;;18.60;99.90;;;;;;4972293;28;20503;-82
2022/08/18 02:15:34;;;;;;;1999.90;999.90;;;18.70;99.90;;;;;;4956769;28;20043;-79
2022/08/18 02:18:00;;;;;;;1999.90;999.90;;;19.80;99.90;;;;;;4973932;28;20046;-79
2022/08/18 02:20:26;;;;;;;1999.90;999.90;;;18.60;99.90;;;;;;4972886;28;20046;-80
2022/08/18 02:22:54;;;;;;;1999.90;999.90;;;19.80;99.90;;;;;;4972115;28;20054;-80
2022/08/18 02:25:20;;;;;;;1999.90;999.90;;;18.60;99.90;;;;;;4970944;28;20049;-80
2022/08/18 02:27:46;;;;;;;1999.90;999.90;;;20.00;99.90;;;;;;4971047;28;20058;-80
2022/08/18 02:30:15;;;;;;;1999.90;999.90;;;19.70;99.90;;;;;;4956542;28;20116;-80
2022/08/18 02:32:51;;;;;;;1999.90;999.90;;;19.90;99.90;;;;;;4970551;28;20094;-80
2022/08/18 02:35:17;;;;;;;1999.90;999.90;;;18.60;99.90;;;;;;4971322;28;20073;-80
2022/08/18 02:37:46;;;;;;;1999.90;999.90;;;19.40;99.90;;;;;;4971994;28;20055;-80
2022/08/18 02:40:14;;;;;;;1999.90;999.90;;;19.80;99.90;;;;;;4955253;28;20134;-79
2022/08/18 02:42:51;;;;;;;1999.90;999.90;;;20.00;99.90;;;;;;4939128;28;20326;-83
2022/08/18 02:45:24;;;;;;;1999.90;999.90;;;20.00;99.90;;;;;;4955696;28;20055;-84
2022/08/18 02:47:52;;;;;;;1999.90;999.90;;;18.60;99.90;;;;;;4954963;28;20090;-80
2022/08/18 02:50:26;;;;;;;1999.90;999.90;;;19.40;99.90;;;;;;4956261;28;20050;-80
2022/08/18 02:52:54;;;;;;;1999.90;999.90;;;19.80;99.90;;;;;;4938419;28;20063;-80
2022/08/18 02:55:28;;;;;;;1999.90;999.90;;;19.30;99.90;;;;;;4940241;28;20132;-84
2022/08/18 02:57:56;;;;;;;1999.90;999.90;;;19.50;99.90;;;;;;4923396;28;20042;-83
2022/08/18 03:00:23;;;;;;;1999.90;999.90;;;18.70;99.90;;;;;;4969336;28;20078;-80
2022/08/18 03:02:58;;;;;;;1999.90;999.90;;;19.90;99.90;;;;;;4938260;28;20066;-80
2022/08/18 03:05:29;;;;;;;1999.90;999.90;;;19.80;99.90;;;;;;4971839;28;20055;-79
2022/08/18 03:08:02;;;;;;;1999.90;999.90;;;19.80;99.90;;;;;;4955225;28;20066;-82
2022/08/18 03:10:44;;;;;;;1999.90;999.90;;;19.70;99.90;;;;;;4956497;28;20054;-80
2022/08/18 03:13:10;;;;;;;1999.90;999.90;;;19.80;99.90;;;;;;4955927;28;20201;-80
2022/08/18 03:16:01;;;;;;;1999.90;999.90;;;18.50;99.90;;;;;;4908636;28;20619;-81
2022/08/18 03:18:29;;;;;;;1999.90;999.90;;;19.60;99.90;;;;;;4971405;28;20051;-79
2022/08/18 03:21:08;;;;;;;1999.90;999.90;;;19.20;99.90;;;;;;4971314;28;20100;-80
2022/08/18 03:23:35;;;;;;;1999.90;999.90;;;19.90;99.90;;;;;;4971084;28;20043;-82
2022/08/18 03:26:01;;;;;;;1999.90;999.90;;;19.80;99.90;;;;;;4953093;28;20051;-84
2022/08/18 03:28:43;;;;;;;1999.90;999.90;;;19.30;99.90;;;;;;4953218;28;20061;-81
2022/08/18 03:31:19;;;;;;;1999.90;999.90;;;18.90;99.90;;;;;;4953990;28;20061;-80
2022/08/18 03:33:54;;;;;;;1999.90;999.90;;;19.80;99.90;;;;;;4946755;28;20059;-80
2022/08/18 03:36:24;;;;;;;1999.90;999.90;;;19.90;99.90;;;;;;4954388;28;20513;-82
2022/08/18 03:38:52;;;;;;;1999.90;999.90;;;19.00;99.90;;;;;;4972125;28;20066;-80
2022/08/18 03:41:28;;;;;;;1999.90;999.90;;;19.00;99.90;;;;;;4939139;28;20302;-83
2022/08/18 03:43:55;;;;;;;1999.90;999.90;;;19.90;99.90;;;;;;4938403;28;20050;-81
2022/08/18 03:46:24;;;;;;;1999.90;999.90;;;19.80;99.90;;;;;;4954352;28;20120;-83
2022/08/18 03:49:14;;;;;;;1999.90;999.90;;;19.40;99.90;;;;;;4938706;28;20039;-83
2022/08/18 03:52:10;;;;;;;1999.90;999.90;;;18.80;99.90;;;;;;4971036;28;20581;-83
2022/08/18 03:54:59;;;;;;;1999.90;999.90;;;18.90;99.90;;;;;;4951777;28;20066;-81
2022/08/18 03:57:41;;;;;;;1999.90;999.90;;;19.70;99.90;;;;;;4924911;28;20047;-82
2022/08/18 04:00:39;;;;;;;1999.90;999.90;;;19.00;99.90;;;;;;4971097;28;20439;-85
2022/08/18 04:03:29;;;;;;;1999.90;999.90;;;18.60;99.90;;;;;;4968634;28;20042;-80
2022/08/18 04:06:29;;;;;;;1999.90;999.90;;;19.90;99.90;;;;;;4920477;28;20475;-81
2022/08/18 04:09:07;;;;;;;1999.90;999.90;;;19.50;99.90;;;;;;4939490;28;20051;-80
2022/08/18 04:12:14;;;;;;;1999.90;999.90;;;18.40;99.90;;;;;;4939825;28;20085;-81
2022/08/18 04:15:17;;;;;;;1999.90;999.90;;;18.40;99.90;;;;;;4975091;28;20050;-80
2022/08/18 04:18:38;;;;;;;1999.90;999.90;;;19.00;99.90;;;;;;4972477;28;20077;-85
2022/08/18 04:21:32;;;;;;;1999.90;999.90;;;19.80;99.90;;;;;;4927412;28;20471;-80
2022/08/18 04:24:13;;;;;;;1999.90;999.90;;;19.50;99.90;;;;;;4945320;28;20403;-81
2022/08/18 04:26:48;;;;;;;1999.90;999.90;;;18.40;99.90;;;;;;4924273;28;20058;-81
2022/08/18 04:29:23;;;;;;;1999.90;999.90;;;18.80;99.90;;;;;;4966818;28;20138;-81
2022/08/18 04:32:14;;;;;;;1999.90;999.90;;;18.90;99.90;;;;;;4959203;28;20046;-81
2022/08/18 04:34:50;;;;;;;1999.90;999.90;;;18.90;99.90;;;;;;4959646;28;20051;-83
2022/08/18 04:38:08;;;;;;;1999.90;999.90;;;18.80;99.90;;;;;;4963080;28;20062;-82
2022/08/18 04:41:19;;;;;;;1999.90;999.90;;;19.30;99.90;;;;;;4900651;29;20056;-82
2022/08/18 04:44:22;;;;;;;1999.90;999.90;;;19.00;99.90;;;;;;4897437;29;20078;-81
2022/08/18 04:50:39;;;;;;;1999.90;999.90;;;18.40;99.90;;;;;;4974346;28;20049;-84
2022/08/18 04:53:51;;;;;;;1999.90;999.90;;;18.60;99.90;;;;;;4942544;28;20054;-83
2022/08/18 04:56:53;;;;;;;1999.90;999.90;;;19.20;99.90;;;;;;4972778;28;20546;-83
2022/08/18 05:00:02;;;;;;;1999.90;999.90;;;19.00;99.90;;;;;;4971507;28;20058;-85
2022/08/18 05:02:48;;;;;;;1999.90;999.90;;;18.50;99.90;;;;;;4970460;28;20065;-83
2022/08/18 05:05:33;;;;;;;1999.90;999.90;;;19.80;99.90;;;;;;4974503;28;20174;-83
2022/08/18 05:08:21;;;;;;;1999.90;999.90;;;18.60;99.90;;;;;;4973738;28;20494;-82
2022/08/18 05:10:58;;;;;;;1999.90;999.90;;;18.60;99.90;;;;;;4958262;28;20112;-87
2022/08/18 05:13:36;;;;;;;1999.90;999.90;;;18.80;99.90;;;;;;4957752;28;20136;-81
2022/08/18 05:16:24;;;;;;;1999.90;999.90;;;19.10;99.90;;;;;;4973532;28;20536;-82
2022/08/18 05:18:58;;;;;;;1999.90;999.90;;;19.30;99.90;;;;;;4943516;28;20050;-82
2022/08/18 05:21:46;;;;;;;1999.90;999.90;;;19.10;99.90;;;;;;4974817;28;20578;-81
2022/08/18 05:24:51;;;;;;;1999.90;999.90;;;20.00;99.90;;;;;;4926577;28;20061;-84
2022/08/18 05:31:36;;;;;;;1999.90;999.90;;;19.50;99.90;;;;;;4975535;28;20119;-85
2022/08/18 05:34:10;;;;;;;1999.90;999.90;;;20.10;99.90;;;;;;4957049;28;20055;-84
2022/08/18 05:37:02;;;;;;;1999.90;999.90;;;19.30;99.90;;;;;;4974412;28;20506;-84
2022/08/18 05:39:43;;;;;;;1999.90;999.90;;;18.90;99.90;;;;;;4939104;29;20408;-84
2022/08/18 05:42:16;;;;;;;1999.90;999.90;;;20.30;99.90;;;;;;4938327;29;20146;-86
2022/08/18 05:44:46;;;;;;;1999.90;999.90;;;18.80;99.90;;;;;;4938635;29;20087;-86
2022/08/18 05:47:28;;;;;;;1999.90;999.90;;;20.30;99.90;;;;;;4955217;28;20404;-85
2022/08/18 05:50:01;;;;;;;1999.90;999.90;;;20.30;99.90;;;;;;4938564;29;20055;-85
2022/08/18 05:52:35;;;;;;;1999.90;999.90;;;18.80;99.90;;;;;;4938828;29;20070;-85
2022/08/18 05:58:14;;;;;;;1999.90;999.90;;;19.70;99.90;;;;;;4954202;29;20066;-86
2022/08/18 06:00:43;;;;;;;1999.90;999.90;;;20.40;99.90;;;;;;4938651;29;20043;-85
2022/08/18 06:03:29;;;;;;;1999.90;999.90;;;20.10;99.90;;;;;;4955134;28;20086;-86
2022/08/18 06:06:00;;;;;;;1999.90;999.90;;;20.50;99.90;;;;;;4939048;29;20092;-85
2022/08/18 06:08:39;;;;;;;1999.90;999.90;;;19.10;99.90;;;;;;4954843;29;20047;-85
2022/08/18 06:11:05;;;;;;;1999.90;999.90;;;20.50;99.90;;;;;;4938974;29;20051;-84
2022/08/18 06:13:37;;;;;;;1999.90;999.90;;;19.10;99.90;;;;;;4953859;29;20079;-85
2022/08/18 06:16:22;;;;;;;1999.90;999.90;;;20.60;99.90;;;;;;4938790;29;20059;-84
2022/08/18 06:19:06;;;;;;;1999.90;999.90;;;20.70;99.90;;;;;;4938558;29;20043;-84
2022/08/18 06:22:02;;;;;;;1999.90;999.90;;;20.10;99.90;;;;;;4937838;29;20039;-84
2022/08/18 06:24:43;;;;;;;1999.90;999.90;;;20.90;99.90;;;;;;4938222;29;20059;-85
2022/08/18 06:27:29;;;;;;;1999.90;999.90;;;19.50;99.90;;;;;;4954846;29;20051;-84
2022/08/18 06:30:06;;;;;;;1999.90;999.90;;;19.70;99.90;;;;;;4952857;28;20078;-84
2022/08/18 06:33:05;;;;;;;1999.90;999.90;;;20.80;99.90;;;;;;4938196;29;20086;-84
2022/08/18 06:35:50;;;;;;;1999.90;999.90;;;20.00;99.90;;;;;;4954100;29;20389;-85
2022/08/18 06:38:42;;;;;;;1999.90;999.90;;;18.70;99.90;;;;;;4965156;28;20174;-84
2022/08/18 06:41:20;;;;;;;1999.90;999.90;;;19.20;99.90;;;;;;4957004;28;20051;-84
2022/08/18 06:43:58;;;;;;;1999.90;999.90;;;20.80;99.90;;;;;;4957466;28;20090;-85
2022/08/18 06:46:33;;;;;;;1999.90;999.90;;;20.90;99.90;;;;;;4957945;28;20059;-84
2022/08/18 06:49:07;;;;;;;1999.90;999.90;;;19.60;99.90;;;;;;4956607;28;20294;-84
2022/08/18 06:51:34;;;;;;;1999.90;999.90;;;20.50;99.90;;;;;;4957570;28;20384;-85
2022/08/18 06:54:01;;;;;;;1999.90;999.90;;;20.50;99.90;;;;;;4972294;28;20050;-84
2022/08/18 06:56:33;;;;;;;1999.90;999.90;;;19.70;99.90;;;;;;4952666;28;20094;-86
2022/08/18 06:59:14;;;;;;;1999.90;999.90;;;20.30;99.90;;;;;;4956077;28;20065;-85
2022/08/18 07:01:40;;;;;;;1999.90;999.90;;;21.40;99.90;;;;;;4973029;28;20057;-86
2022/08/18 07:04:05;;;;;;;1999.90;999.90;;;20.40;99.90;;;;;;4955733;28;20125;-85
2022/08/18 07:06:31;;;;;;;1999.90;999.90;;;20.80;99.90;;;;;;4956488;28;20049;-85
2022/08/18 07:09:17;;;;;;;1999.90;999.90;;;20.70;99.90;;;;;;4923563;28;20054;-84
2022/08/18 07:12:04;;;;;;;1999.90;999.90;;;21.50;99.90;;;;;;4955086;28;20498;-90
2022/08/18 07:14:40;;;;;;;1999.90;999.90;;;21.20;99.90;;;;;;4955027;28;20050;-83
2022/08/18 07:17:21;;;;;;;1999.90;999.90;;;20.90;99.90;;;;;;4941360;28;20468;-83
2022/08/18 07:19:59;;;;;;;1999.90;999.90;;;20.70;99.90;;;;;;4955690;28;20054;-87
2022/08/18 07:22:25;;;;;;;1999.90;999.90;;;21.40;99.90;;;;;;4957104;28;20061;-84
2022/08/18 07:24:53;;;;;;;1999.90;999.90;;;20.50;99.90;;;;;;4956410;28;20051;-83
2022/08/18 07:27:22;;;;;;;1999.90;999.90;;;22.00;99.90;;;;;;4957195;28;20146;-83
2022/08/18 07:30:12;;;;;;;1999.90;999.90;;;21.80;99.90;;;;;;4972893;28;20133;-83
2022/08/18 07:32:50;;;;;;;1999.90;999.90;;;22.00;99.90;;;;;;4956632;28;20097;-83
2022/08/18 07:35:26;;;;;;;1999.90;999.90;;;20.40;99.90;;;;;;4956491;28;20483;-83
2022/08/18 07:38:12;;;;;;;1999.90;999.90;;;21.80;99.90;;;;;;4956497;28;20141;-83
2022/08/18 07:40:44;;;;;;;1999.90;999.90;;;21.80;99.90;;;;;;4956050;28;20046;-83
2022/08/18 07:43:20;;;;;;;1999.90;999.90;;;21.60;99.90;;;;;;4972116;28;20503;-83
2022/08/18 07:45:46;;;;;;;1999.90;999.90;;;20.60;99.90;;;;;;4972721;28;20101;-82
2022/08/18 07:48:20;;;;;;;1999.90;999.90;;;21.90;99.90;;;;;;4941007;28;20053;-83
2022/08/18 07:51:06;;;;;;;1999.90;999.90;;;22.10;99.90;;;;;;4955615;28;20534;-86
2022/08/18 07:54:09;;;;;;;1999.90;999.90;;;20.50;99.90;;;;;;4954860;28;20491;-85
2022/08/18 07:57:08;;;;;;;1999.90;999.90;;;20.80;99.90;;;;;;4955353;28;20050;-85
2022/08/18 08:00:02;;;;;;;1999.90;999.90;;;21.80;99.90;;;;;;4953166;28;20404;-86
2022/08/18 08:02:50;;;;;;;1999.90;999.90;;;20.20;99.90;;;;;;4935289;28;20058;-83
2022/08/18 08:05:23;;;;;;;1999.90;999.90;;;19.90;99.90;;;;;;4971038;28;20054;-83
2022/08/18 08:08:15;;;;;;;1999.90;999.90;;;19.90;99.90;;;;;;4971825;28;20296;-91
2022/08/18 08:10:50;;;;;;;1999.90;999.90;;;19.70;99.90;;;;;;4954527;28;20392;-84
2022/08/18 08:13:34;;;;;;;1999.90;999.90;;;20.00;99.90;;;;;;4971571;28;20510;-84
2022/08/18 08:16:50;;;;;;;1999.90;999.90;;;21.10;99.90;;;;;;4971463;28;20086;-85
2022/08/18 08:19:40;;;;;;;1999.90;999.90;;;21.10;99.90;;;;;;4943359;28;20082;-84
2022/08/18 08:22:14;;;;;;;1999.90;999.90;;;21.20;99.90;;;;;;4974240;28;20050;-84
2022/08/18 08:24:45;;;;;;;1999.90;999.90;;;21.80;99.90;;;;;;4972828;28;20112;-84
2022/08/18 08:27:41;;;;;;;1999.90;999.90;;;20.30;99.90;;;;;;4973814;28;20506;-83
2022/08/18 08:30:08;;;;;;;1999.90;999.90;;;21.50;99.90;;;;;;4973503;28;20070;-83
2022/08/18 08:32:58;;;;;;;1999.90;999.90;;;21.80;99.90;;;;;;4973185;28;20047;-83
2022/08/18 08:35:50;;;;;;;1999.90;999.90;;;21.70;99.90;;;;;;4973478;28;20238;-82
2022/08/18 08:38:43;;;;;;;1999.90;999.90;;;20.40;99.90;;;;;;4972439;28;20046;-82
2022/08/18 08:41:18;;;;;;;1999.90;999.90;;;21.40;99.90;;;;;;4947689;28;20511;-83
2022/08/18 08:43:56;;;;;;;1999.90;999.90;;;21.70;99.90;;;;;;4954350;28;20110;-81
2022/08/18 08:46:28;;;;;;;1999.90;999.90;;;20.40;99.90;;;;;;4955901;28;20082;-81
2022/08/18 08:49:08;;;;;;;1999.90;999.90;;;21.00;99.90;;;;;;4939742;28;20055;-87
2022/08/18 08:51:57;;;;;;;1999.90;999.90;;;21.50;99.90;;;;;;4973073;28;20047;-81
2022/08/18 08:54:49;;;;;;;1999.90;999.90;;;20.80;99.90;;;;;;4956802;28;20322;-81
2022/08/18 08:57:16;;;;;;;1999.90;999.90;;;22.20;99.90;;;;;;4959322;28;20051;-81
2022/08/18 08:59:43;;;;;;;;;;;21.80;99.90;;;;;;4959937;28;20577;-81
2022/08/18 09:02:27;;;;;;;1999.90;999.90;;;22.70;99.90;;;;;;4976464;28;19922;-81
2022/08/18 09:05:01;;;;;;;1999.90;999.90;;;24.90;99.90;;;;;;4976134;28;20042;-81
2022/08/18 09:07:39;;;;;;;1999.90;999.90;;;23.70;99.90;;;;;;4959462;28;20165;-81
2022/08/18 09:10:42;;;;;;;1999.90;999.90;;;23.30;99.90;;;;;;4958955;28;20043;-81
2022/08/18 09:13:23;;;;;;;1999.90;967.08;;;23.80;99.90;;;;;;4975727;28;20491;-81
2022/08/18 09:16:14;;;;;;;1999.90;999.90;;;23.30;99.90;;;;;;4958777;28;20244;-81
2022/08/18 09:19:03;;;;;;;1999.90;999.90;;;22.50;99.90;;;;;;4959089;28;20055;-80
2022/08/18 09:22:06;;;;;;;1999.90;991.47;;;22.40;99.90;;;;;;4959043;28;20078;-80
2022/08/18 09:24:44;;;;;;;1999.90;999.90;;;22.90;99.90;;;;;;4976043;28;20483;-81
2022/08/18 09:27:21;;;;;;;1997.53;999.90;;;23.10;99.90;;;;;;4974992;28;20059;-80
2022/08/18 09:29:56;;;;;;;1802.72;999.90;;;22.90;99.90;;;;;;4976271;28;20054;-81
2022/08/18 09:32:22;;;;;;;1980.00;999.90;;;21.80;99.90;;;;;;4975870;28;20047;-80
2022/08/18 09:35:06;;;;;;;1999.90;999.90;;;22.00;99.90;;;;;;4976150;28;20043;-81
2022/08/18 09:43:52;;;;;;;1999.90;999.90;;;22.00;99.90;;;;;;4975600;28;20134;-80
2022/08/18 09:46:45;;;;;;;1999.90;999.90;;;22.40;99.90;;;;;;4958401;28;20043;-80
2022/08/18 09:49:26;;;;;;;1794.78;999.90;;;22.30;99.90;;;;;;4975511;28;20057;-80
2022/08/18 09:51:53;;;;;;;1999.90;999.90;;;23.30;99.90;;;;;;4975534;28;20046;-80
2022/08/18 09:54:23;;;;;;;1811.50;999.90;;;22.50;99.90;;;;;;4958216;28;20083;-82
2022/08/18 09:56:48;;;;;;;1999.90;999.90;;;22.30;99.90;;;;;;4975047;28;20042;-80
2022/08/18 09:59:32;;;;;;;1922.60;999.90;;;22.60;99.90;;;;;;4975327;28;20043;-80
2022/08/18 10:01:59;;;;;;;1962.72;999.90;;;23.50;99.90;;;;;;4975500;28;20046;-80
2022/08/18 10:04:28;;;;;;;1999.22;999.90;;;23.60;99.90;;;;;;4975012;28;20459;-82
2022/08/18 10:07:13;;;;;;;1999.90;999.90;;;23.10;99.90;;;;;;4975214;28;20097;-79
2022/08/18 10:09:47;;;;;;;1999.90;999.90;;;23.30;99.90;;;;;;4975187;28;20101;-83
2022/08/18 10:12:22;;;;;;;1999.90;999.90;;;23.10;99.90;;;;;;4975016;28;20130;-80
2022/08/18 10:15:01;;;;;;;1999.90;999.90;;;23.30;99.90;;;;;;4975351;28;20055;-80
2022/08/18 10:17:44;;;;;;;1999.90;999.90;;;22.80;99.90;;;;;;4957461;28;20047;-81
2022/08/18 10:20:24;;;;;;;1999.90;999.90;;;22.80;99.90;;;;;;4957959;28;20395;-80
2022/08/18 10:22:50;;;;;;;1999.90;999.90;;;23.00;99.90;;;;;;4974851;28;20129;-80
2022/08/18 10:25:36;;;;;;;1999.90;999.90;;;23.70;99.90;;;;;;4973944;28;20524;-81
2022/08/18 10:28:05;;;;;;;1999.90;999.90;;;23.70;99.90;;;;;;4972583;28;20226;-83
2022/08/18 10:30:34;;;;;;;1999.90;999.90;;;23.90;99.90;;;;;;4975004;28;20050;-82
2022/08/18 10:33:04;;;;;;;1999.90;999.90;;;24.10;99.90;;;;;;4975038;28;20058;-82
2022/08/18 10:35:56;;;;;;;1999.90;999.90;;;24.00;99.90;;;;;;4974769;28;20062;-82
2022/08/18 10:38:39;;;;;;;1999.90;999.90;;;23.70;99.90;;;;;;4973468;28;20059;-81
2022/08/18 10:41:18;;;;;;;1999.90;999.90;;;23.50;99.90;;;;;;4974719;28;20129;-87
2022/08/18 10:43:49;;;;;;;1999.90;999.90;;;23.30;99.90;;;;;;4974462;28;20495;-82
2022/08/18 10:46:33;;;;;;;1999.90;999.90;;;23.10;99.90;;;;;;4974359;28;20054;-82
2022/08/18 10:49:00;;;;;;;1999.90;999.90;;;23.20;99.90;;;;;;4956828;28;20180;-82
2022/08/18 10:51:38;;;;;;;1999.90;999.90;;;23.30;99.90;;;;;;4974413;28;20435;-83
2022/08/18 10:54:16;;;;;;;1999.90;999.90;;;23.30;99.90;;;;;;4975031;28;20043;-82
2022/08/18 10:56:49;;;;;;;1999.90;999.90;;;23.60;99.90;;;;;;4973785;28;20110;-80
2022/08/18 10:59:36;;;;;;;1999.90;999.90;;;23.40;99.90;;;;;;4956565;28;20051;-80
2022/08/18 11:02:30;;;;;;;1999.90;999.90;;;23.50;99.90;;;;;;4956311;28;20055;-79
2022/08/18 11:04:57;;;;;;;1999.90;999.90;;;23.60;99.90;;;;;;4957139;28;20043;-81
2022/08/18 11:07:28;;;;;;;1999.90;999.90;;;23.70;99.90;;;;;;4974041;28;20051;-78
2022/08/18 11:09:56;;;;;;;1999.90;999.90;;;23.70;99.90;;;;;;4973832;28;20046;-82
2022/08/18 11:12:58;;;;;;;1999.90;999.90;;;23.70;99.90;;;;;;4973621;28;20079;-81
2022/08/18 11:16:02;;;;;;;1999.90;933.38;;;23.60;99.90;;;;;;4974158;28;20122;-81
2022/08/18 11:18:34;;;;;;;1999.90;999.90;;;23.50;99.90;;;;;;4973949;28;20057;-83
2022/08/18 11:21:34;;;;;;;1999.90;999.90;;;23.30;99.90;;;;;;4973901;28;20515;-82
2022/08/18 11:24:08;;;;;;;;;;;23.20;99.90;;;;;;4974439;28;20483;-82
2022/08/18 11:26:38;;;;;;;1999.90;999.90;;;23.10;99.90;;;;;;4956204;28;19929;-82
2022/08/18 11:29:21;;;;;;;1999.90;999.90;;;23.10;99.90;;;;;;4956729;28;20061;-87
2022/08/18 11:31:53;;;;;;;1999.90;999.90;;;23.40;99.90;;;;;;4973182;28;20046;-79
2022/08/18 11:34:34;;;;;;;1999.90;999.90;;;23.80;99.90;;;;;;4972953;28;20062;-81
2022/08/18 11:37:05;;;;;;;1612.00;615.33;;;25.40;99.90;;;;;;4956238;28;20059;-82
2022/08/18 11:39:30;;;;;;;1999.90;999.90;;;26.90;99.90;;;;;;4956530;28;20066;-82
2022/08/18 11:41:57;;;;;;;1162.10;815.50;;;27.60;99.90;;;;;;4955529;28;20043;-82
2022/08/18 11:44:30;;;;;;;1999.90;999.90;;;28.00;99.90;;;;;;4973798;28;20050;-81
2022/08/18 11:47:17;;;;;;;1224.30;903.42;;;28.40;99.90;;;;;;4973865;28;20086;-80
2022/08/18 11:50:11;;;;;;;1999.90;999.90;;;28.30;99.90;;;;;;4956819;28;20423;-82
2022/08/18 11:52:51;;;;;;;1396.70;999.90;;;27.90;99.90;;;;;;4953574;28;20066;-82
2022/08/18 11:55:37;;;;;;;1999.90;999.90;;;27.60;99.90;;;;;;4973262;28;20125;-82
2022/08/18 11:58:04;;;;;;;1138.15;797.13;;;28.30;99.90;;;;;;4955988;28;20066;-84
2022/08/18 12:00:42;;;;;;;1645.93;994.75;;;29.50;99.90;;;;;;4956020;28;20512;-80
2022/08/18 12:03:29;;;;;;;1627.78;999.90;;;30.00;99.90;;;;;;4973459;28;20391;-81
2022/08/18 12:05:59;;;;;;;1741.75;999.90;;;30.90;99.90;;;;;;4973729;28;20047;-80
2022/08/18 12:08:33;;;;;;;1451.55;999.90;;;30.50;99.90;;;;;;4973604;28;20497;-80
2022/08/18 12:11:06;;;;;;;1405.93;999.90;;;30.00;99.90;;;;;;4956367;28;20042;-80
2022/08/18 12:13:31;;;;;;;1052.80;943.10;;;29.70;99.90;;;;;;4939672;28;20046;-80
2022/08/18 12:16:12;;;;;;;1626.35;999.90;;;29.30;99.90;;;;;;4956442;28;20053;-80
2022/08/18 12:18:37;;;;;;;1109.88;982.90;;;29.10;99.90;;;;;;4973384;28;20475;-80
2022/08/18 12:21:04;;;;;;;1029.72;926.47;;;28.50;99.90;;;;;;4973510;28;20042;-80
2022/08/18 12:23:32;;;;;;;977.00;882.10;;;27.90;99.90;;;;;;4973406;28;20097;-80
2022/08/18 12:25:58;;;;;;;1992.68;999.90;;;27.50;99.90;;;;;;4973858;28;20081;-80
2022/08/18 12:28:25;;;;;;;1638.55;999.90;;;27.00;99.90;;;;;;4940477;28;20480;-80
2022/08/18 12:30:51;;;;;;;1685.53;999.90;;;26.70;99.90;;;;;;4977363;28;20082;-80
2022/08/18 12:33:17;;;;;;;1999.90;999.90;;;26.70;99.90;;;;;;4976961;28;20093;-80
2022/08/18 12:35:43;;;;;;;1516.65;999.90;;;26.80;99.90;;;;;;4960334;28;20042;-80
2022/08/18 12:38:09;;;;;;;955.08;868.95;;;27.00;1.00;;;;;;4976738;28;20086;-81
2022/08/18 12:40:35;;;;;;;1129.00;969.67;;;27.10;99.90;;;;;;4976740;28;20137;-82
2022/08/18 12:43:01;;;;;;;1009.78;908.40;;;27.20;1.00;;;;;;4976910;28;20057;-87
2022/08/18 12:45:27;;;;;;;1110.40;969.75;;;27.20;99.90;;;;;;4959424;28;20042;-80
2022/08/18 12:47:53;;;;;;;1076.13;960.20;;;27.20;99.90;;;;;;4976567;28;20045;-81
2022/08/18 12:50:19;;;;;;;929.90;848.42;;;27.20;99.90;;;;;;4976531;28;20053;-81
2022/08/18 12:52:44;;;;;;;1047.45;934.65;;;27.20;99.90;;;;;;4976404;28;20539;-80
2022/08/18 12:55:10;;;;;;;929.97;842.22;;;27.20;98.70;;;;;;4959279;28;20438;-80
2022/08/18 12:57:36;;;;;;;999.50;892.67;;;27.00;1.00;;;;;;4976317;28;20516;-80
2022/08/18 13:00:03;;;;;;;1245.47;985.75;;;27.10;1.00;;;;;;4976673;28;20399;-80
2022/08/18 13:02:28;;;;;;;920.08;837.42;;;27.00;1.00;;;;;;4976253;28;20051;-80
2022/08/18 13:04:54;;;;;;;1999.90;999.90;;;27.00;99.90;;;;;;4976355;28;20048;-81
2022/08/18 13:07:20;;;;;;;915.92;834.25;;;27.00;99.90;;;;;;4976013;28;20051;-81
2022/08/18 13:09:46;;;;;;;1083.95;918.58;;;27.00;99.90;;;;;;4957881;28;20054;-81
2022/08/18 13:12:13;;;;;;;941.70;852.58;;;27.00;99.90;;;;;;4942512;28;20073;-80